< < Back
Terminal Aerodrome Forecast


Current Version              Previous Versions:   1  2  3  4  5  6  7  8  9  

Terminal Aerodrome Forecast

719
FTUS44 KBMX 261127
TAFTCL
TAF
KTCL 261127Z 2612/2712 23003KT 1SM BR BKN007
     FM261300 23006KT 4SM BR OVC007
     FM261500 29008KT P6SM SCT250
     FM261800 28010G18KT P6SM SCT250
     FM270500 33005KT P6SM SCT250=

Latest METAR

201
SAUS70 KWBC 270400 RRF
MTRTCL
METAR KTCL 270353Z 03011KT 10SM CLR 18/13 A2980 RMK AO2 SLP090
T01780133


USA.gov is the U.S. government's official web portal to all federal, state and local government web resources and services.